Skip Navigation Links Skip Navigation Links

Current Weather

Joliet Regional, Joliet, Ill.

For information only: do not use for flight planning or navigation.
Latest weather
Observation time Saturday, August 24, 2019 11:55 PM CDT
Local time Sunday, August 25, 2019 12:11 AM CDT
Flight conditions Visual Meteorological Conditions
Winds
Wind direction East-Southeast (110°)
Wind speed 7 mph
Visibility 10 mi.
Sky condition
Ceiling unlimited
Sky clear
Temperature 64°F
Dewpoint 55°F
Altimeter 30.20 in.Hg
Derived measurements
Relative humidity 73%
Density altitude 763 ft.
Remarks
Fully automated report.
Automated weather observing station with precipitation discriminator.
METAR KJOT 250455Z AUTO 11006KT 10SM CLR 18/13 A3020 RMK AO2 T01750127

Settings

Location code

InnerDrive.Weather 4.0.6770.0 Release CLR 4.0.30319.42000
Copyright ©2018 Inner Drive Technology. All rights reserved. Portions Copyright ©1986-2018 David Braverman.

Find weather

Site navigation


Skip Navigation Links

Place info

Page info

PayPal - The safer, easier way to pay online!

Return home.

Copyright ©2019 Inner Drive Technology. Purveyors of fine, hand-crafted computer software. Page printed 2019-08-25T05:11:24 UTC.